Time;durP1;ratioP1;P1;durP2;ratioP2;P2;SDS_P1;SDS_P2;PMS_P1;PMS_P2;Temp;Humidity;BMP_temperature;BMP_pressure;BME280_temperature;BME280_humidity;BME280_pressure;Samples;Min_cycle;Max_cycle;Signal;HPM_P1;HPM_P2
2023/07/05 00:00:51;;;;;;;2.83;1.80;;;;;;;;;;4994506;28;20178;-71
2023/07/05 00:03:56;;;;;;;3.43;2.20;;;;;;;;;;4994658;28;20177;-72
2023/07/05 00:07:00;;;;;;;3.60;1.90;;;;;;;;;;4993814;28;20179;-72
2023/07/05 00:10:05;;;;;;;1.73;1.50;;;;;;;;;;4994329;28;20552;-72
2023/07/05 00:13:09;;;;;;;5.53;2.17;;;;;;;;;;4994700;28;20708;-72
2023/07/05 00:16:13;;;;;;;4.07;1.80;;;;;;;;;;4994361;28;20198;-72
2023/07/05 00:19:17;;;;;;;2.73;1.70;;;;;;;;;;4994653;28;20182;-72
2023/07/05 00:22:21;;;;;;;2.80;1.67;;;;;;;;;;4994002;28;20221;-72
2023/07/05 00:25:25;;;;;;;1.80;1.50;;;;;;;;;;4993534;28;20182;-72
2023/07/05 00:28:32;;;;;;;4.57;1.60;;;;;;;;;;4994206;28;20209;-71
2023/07/05 00:31:37;;;;;;;2.73;2.07;;;;;;;;;;4994119;28;20210;-73
2023/07/05 00:34:41;;;;;;;3.37;1.77;;;;;;;;;;4982141;28;20182;-73
2023/07/05 00:37:45;;;;;;;3.27;1.57;;;;;;;;;;4981973;28;20182;-72
2023/07/05 00:40:51;;;;;;;3.50;1.83;;;;;;;;;;4993422;28;20178;-73
2023/07/05 00:43:54;;;;;;;3.27;1.63;;;;;;;;;;4994019;28;20622;-73
2023/07/05 00:47:24;;;;;;;2.37;1.57;;;;;;;;;;4993918;28;20178;-73
2023/07/05 00:50:36;;;;;;;1.83;1.67;;;;;;;;;;4993073;28;20174;-72
2023/07/05 00:53:40;;;;;;;2.23;1.53;;;;;;;;;;4992858;28;20187;-73
2023/07/05 00:56:54;;;;;;;2.97;1.50;;;;;;;;;;4993340;28;20182;-73
2023/07/05 01:00:12;;;;;;;1.67;1.30;;;;;;;;;;4993246;28;20182;-73
2023/07/05 01:03:22;;;;;;;1.40;1.27;;;;;;;;;;4995214;28;20222;-73
2023/07/05 01:06:27;;;;;;;2.30;1.77;;;;;;;;;;4996984;28;20182;-73
2023/07/05 01:09:31;;;;;;;2.23;1.30;;;;;;;;;;4998191;28;20214;-73
2023/07/05 01:12:42;;;;;;;1.93;1.37;;;;;;;;;;4997498;28;20225;-73
2023/07/05 01:15:54;;;;;;;1.60;1.20;;;;;;;;;;4996802;28;20185;-72
2023/07/05 01:19:33;;;;;;;1.47;1.30;;;;;;;;;;4996773;28;20186;-73
2023/07/05 01:22:52;;;;;;;2.67;1.83;;;;;;;;;;4996643;28;20222;-73
2023/07/05 01:26:14;;;;;;;2.50;1.60;;;;;;;;;;4996639;28;20187;-73
2023/07/05 01:29:47;;;;;;;2.60;1.67;;;;;;;;;;4996945;28;20546;-73
2023/07/05 01:33:02;;;;;;;4.13;1.73;;;;;;;;;;4985667;28;20214;-73
2023/07/05 01:36:09;;;;;;;2.50;1.70;;;;;;;;;;4996720;28;20186;-73
2023/07/05 01:39:13;;;;;;;2.63;1.80;;;;;;;;;;4985361;28;20518;-73
2023/07/05 01:42:20;;;;;;;2.37;1.63;;;;;;;;;;4996213;28;20214;-73
2023/07/05 01:45:45;;;;;;;2.37;1.60;;;;;;;;;;4995984;28;20198;-73
2023/07/05 01:49:21;;;;;;;3.73;1.70;;;;;;;;;;4996207;28;20210;-73
2023/07/05 01:53:02;;;;;;;5.13;2.10;;;;;;;;;;4996985;28;20225;-73
2023/07/05 01:56:15;;;;;;;1.40;1.30;;;;;;;;;;4996353;28;20535;-73
2023/07/05 01:59:24;;;;;;;2.20;1.63;;;;;;;;;;4995993;28;20174;-72
2023/07/05 02:02:37;;;;;;;2.97;1.60;;;;;;;;;;4984739;28;20582;-73
2023/07/05 02:05:42;;;;;;;2.30;1.50;;;;;;;;;;4995655;28;20186;-73
2023/07/05 02:08:50;;;;;;;2.57;1.63;;;;;;;;;;4995556;28;20221;-72
2023/07/05 02:11:56;;;;;;;2.27;1.73;;;;;;;;;;4995744;28;20226;-73
2023/07/05 02:15:01;;;;;;;3.20;1.60;;;;;;;;;;4994761;28;20182;-73
2023/07/05 02:18:06;;;;;;;1.87;1.37;;;;;;;;;;4995842;28;20174;-73
2023/07/05 02:21:11;;;;;;;2.80;1.60;;;;;;;;;;4996185;28;20182;-73
2023/07/05 02:24:15;;;;;;;2.23;1.50;;;;;;;;;;4996535;28;20182;-73
2023/07/05 02:27:20;;;;;;;2.67;1.70;;;;;;;;;;4996169;28;20182;-73
2023/07/05 02:30:26;;;;;;;2.53;1.57;;;;;;;;;;4996451;28;20182;-72
2023/07/05 02:33:31;;;;;;;3.30;1.67;;;;;;;;;;4995462;28;20214;-73
2023/07/05 02:36:35;;;;;;;2.47;1.70;;;;;;;;;;4995523;28;20186;-73
2023/07/05 02:39:39;;;;;;;3.03;1.43;;;;;;;;;;4995949;28;20249;-73
2023/07/05 02:42:45;;;;;;;2.77;1.97;;;;;;;;;;4996682;28;20218;-73
2023/07/05 02:45:50;;;;;;;4.43;1.60;;;;;;;;;;4996162;28;20182;-73
2023/07/05 02:48:57;;;;;;;3.03;1.60;;;;;;;;;;4995019;28;20206;-73
2023/07/05 02:52:00;;;;;;;4.83;1.80;;;;;;;;;;4995681;28;20217;-73
2023/07/05 02:55:05;;;;;;;4.70;2.00;;;;;;;;;;4984013;28;20194;-73
2023/07/05 02:58:09;;;;;;;3.43;1.67;;;;;;;;;;4995100;28;20202;-72
2023/07/05 03:01:13;;;;;;;7.43;2.00;;;;;;;;;;4994960;28;20538;-73
2023/07/05 03:04:18;;;;;;;2.93;1.70;;;;;;;;;;4995743;28;20206;-73
2023/07/05 03:07:22;;;;;;;2.10;1.60;;;;;;;;;;4995193;28;20178;-73
2023/07/05 03:10:26;;;;;;;2.90;1.70;;;;;;;;;;4994552;28;20230;-73
2023/07/05 03:13:32;;;;;;;3.77;1.93;;;;;;;;;;5018675;23;20225;-71
2023/07/05 03:16:36;;;;;;;2.57;1.50;;;;;;;;;;5015413;28;20193;-72
2023/07/05 03:19:40;;;;;;;2.93;1.87;;;;;;;;;;5026160;28;20177;-73
2023/07/05 03:22:45;;;;;;;3.13;1.97;;;;;;;;;;5014844;28;20208;-72
2023/07/05 03:26:15;;;;;;;2.90;1.67;;;;;;;;;;5015980;28;20193;-72
2023/07/05 03:29:19;;;;;;;3.07;1.70;;;;;;;;;;5003859;28;20209;-71
2023/07/05 03:32:23;;;;;;;4.53;1.97;;;;;;;;;;5002959;28;20213;-72
2023/07/05 03:35:28;;;;;;;3.50;1.90;;;;;;;;;;5015206;28;20177;-72
2023/07/05 03:38:33;;;;;;;5.13;2.00;;;;;;;;;;5025743;28;20628;-72
2023/07/05 03:41:38;;;;;;;7.37;2.43;;;;;;;;;;5015655;28;20212;-72
2023/07/05 03:44:42;;;;;;;6.47;1.97;;;;;;;;;;5025677;28;20177;-73
2023/07/05 03:47:46;;;;;;;2.67;1.70;;;;;;;;;;5014572;28;20177;-73
2023/07/05 03:50:54;;;;;;;5.33;1.90;;;;;;;;;;5013825;28;20537;-73
2023/07/05 03:53:58;;;;;;;2.73;1.40;;;;;;;;;;5025509;28;20177;-73
2023/07/05 03:57:03;;;;;;;2.57;1.90;;;;;;;;;;5014364;28;20185;-72
2023/07/05 04:00:08;;;;;;;3.77;1.77;;;;;;;;;;5026016;28;20174;-72
2023/07/05 04:03:16;;;;;;;2.90;1.70;;;;;;;;;;5015018;28;20217;-73
2023/07/05 04:06:22;;;;;;;3.13;2.20;;;;;;;;;;5025574;28;20181;-72
2023/07/05 04:09:26;;;;;;;4.33;1.97;;;;;;;;;;5024849;28;20221;-73
2023/07/05 04:12:31;;;;;;;4.63;2.10;;;;;;;;;;5013155;28;20565;-74
2023/07/05 04:15:35;;;;;;;3.07;2.10;;;;;;;;;;5014471;28;20181;-72
2023/07/05 04:18:42;;;;;;;3.50;2.07;;;;;;;;;;5013327;28;20197;-73
2023/07/05 04:21:46;;;;;;;3.77;2.00;;;;;;;;;;5014169;28;20209;-72
2023/07/05 04:24:51;;;;;;;3.33;1.93;;;;;;;;;;5014126;28;20185;-72
2023/07/05 04:27:55;;;;;;;2.27;1.90;;;;;;;;;;5014417;28;20526;-72
2023/07/05 04:31:00;;;;;;;3.53;2.07;;;;;;;;;;5013035;28;20185;-73
2023/07/05 04:34:04;;;;;;;3.20;1.80;;;;;;;;;;5014242;28;20197;-72
2023/07/05 04:37:08;;;;;;;3.40;1.73;;;;;;;;;;5013336;28;20181;-71
2023/07/05 04:40:12;;;;;;;4.20;1.97;;;;;;;;;;5013863;28;20182;-72
2023/07/05 04:43:17;;;;;;;3.80;1.97;;;;;;;;;;5001891;28;20220;-72
2023/07/05 04:46:21;;;;;;;2.83;1.90;;;;;;;;;;5014149;28;20181;-72
2023/07/05 04:49:25;;;;;;;5.20;2.10;;;;;;;;;;5014078;28;20213;-72
2023/07/05 04:52:30;;;;;;;4.70;1.90;;;;;;;;;;5014351;28;20217;-72
2023/07/05 04:55:34;;;;;;;3.30;1.50;;;;;;;;;;5014024;28;20185;-72
2023/07/05 04:58:38;;;;;;;2.13;1.73;;;;;;;;;;5014209;28;20185;-72
2023/07/05 05:01:42;;;;;;;5.80;2.37;;;;;;;;;;5012954;28;20707;-72
2023/07/05 05:04:46;;;;;;;3.13;2.00;;;;;;;;;;5013671;28;20182;-72
2023/07/05 05:07:51;;;;;;;4.00;2.00;;;;;;;;;;5013249;28;20177;-72
2023/07/05 05:10:57;;;;;;;2.73;1.97;;;;;;;;;;5013768;28;20217;-72
2023/07/05 05:14:01;;;;;;;3.13;1.87;;;;;;;;;;5012999;28;20201;-73
2023/07/05 05:17:06;;;;;;;3.00;2.00;;;;;;;;;;5013989;28;20197;-73
2023/07/05 05:20:11;;;;;;;6.70;2.10;;;;;;;;;;5013825;28;20186;-72
2023/07/05 05:23:15;;;;;;;2.87;2.00;;;;;;;;;;5013432;28;20224;-72
2023/07/05 05:26:19;;;;;;;8.33;2.27;;;;;;;;;;5012826;28;20663;-72
2023/07/05 05:29:23;;;;;;;4.73;2.20;;;;;;;;;;5013133;28;20217;-73
2023/07/05 05:32:27;;;;;;;6.67;2.20;;;;;;;;;;5013300;28;20217;-72
2023/07/05 05:35:32;;;;;;;7.13;1.80;;;;;;;;;;5012577;28;20173;-72
2023/07/05 05:38:37;;;;;;;8.33;2.00;;;;;;;;;;5024062;28;20178;-72
2023/07/05 05:41:41;;;;;;;3.77;1.60;;;;;;;;;;5012978;28;20209;-72
2023/07/05 05:44:45;;;;;;;3.10;1.50;;;;;;;;;;5013299;28;20182;-72
2023/07/05 05:47:50;;;;;;;2.03;1.57;;;;;;;;;;5013401;28;20178;-72
2023/07/05 05:50:54;;;;;;;8.47;1.50;;;;;;;;;;5014824;28;20213;-72
2023/07/05 05:53:58;;;;;;;8.90;1.97;;;;;;;;;;5016618;28;20181;-71
2023/07/05 05:57:02;;;;;;;4.83;2.07;;;;;;;;;;5027363;28;20201;-72
2023/07/05 06:00:09;;;;;;;5.07;2.30;;;;;;;;;;5027126;28;20189;-72
2023/07/05 06:03:13;;;;;;;6.00;1.90;;;;;;;;;;5016014;28;20217;-72
2023/07/05 06:06:18;;;;;;;3.67;1.70;;;;;;;;;;5016662;28;20632;-72
2023/07/05 06:09:24;;;;;;;5.30;1.67;;;;;;;;;;5015529;28;20205;-72
2023/07/05 06:12:28;;;;;;;2.17;1.50;;;;;;;;;;5016034;28;20213;-73
2023/07/05 06:15:32;;;;;;;5.33;1.77;;;;;;;;;;5016301;28;20201;-72
2023/07/05 06:18:36;;;;;;;3.67;1.40;;;;;;;;;;5015283;28;20201;-72
2023/07/05 06:21:40;;;;;;;5.37;1.77;;;;;;;;;;5015982;28;20213;-73
2023/07/05 06:24:45;;;;;;;3.80;1.80;;;;;;;;;;5015178;28;20637;-73
2023/07/05 06:27:48;;;;;;;4.50;1.80;;;;;;;;;;5015383;28;20178;-73
2023/07/05 06:30:53;;;;;;;2.77;1.30;;;;;;;;;;5015147;28;20209;-73
2023/07/05 06:33:57;;;;;;;1.70;1.37;;;;;;;;;;5016111;28;20181;-72
2023/07/05 06:37:01;;;;;;;3.30;1.10;;;;;;;;;;5016070;28;20177;-72
2023/07/05 06:40:06;;;;;;;2.50;1.60;;;;;;;;;;5015916;28;20178;-73
2023/07/05 06:43:10;;;;;;;3.20;1.30;;;;;;;;;;5015402;28;20209;-72
2023/07/05 06:46:15;;;;;;;5.47;1.40;;;;;;;;;;5016121;28;20178;-73
2023/07/05 06:49:19;;;;;;;2.37;1.30;;;;;;;;;;5026093;28;20177;-73
2023/07/05 06:52:23;;;;;;;5.37;2.17;;;;;;;;;;5014671;28;20553;-73
2023/07/05 06:55:27;;;;;;;3.23;1.80;;;;;;;;;;5003395;28;20181;-73
2023/07/05 06:58:31;;;;;;;3.17;1.60;;;;;;;;;;5014586;28;20628;-72
2023/07/05 07:01:36;;;;;;;2.30;1.63;;;;;;;;;;5014100;28;20213;-73
2023/07/05 07:04:40;;;;;;;3.87;1.23;;;;;;;;;;5015489;28;20181;-73
2023/07/05 07:07:44;;;;;;;2.07;0.97;;;;;;;;;;5015251;28;20185;-72
2023/07/05 07:10:48;;;;;;;2.40;1.20;;;;;;;;;;5015545;28;20209;-73
2023/07/05 07:13:52;;;;;;;3.40;1.00;;;;;;;;;;5025664;28;20619;-73
2023/07/05 07:16:56;;;;;;;1.83;1.00;;;;;;;;;;5015100;28;20182;-73
2023/07/05 07:20:01;;;;;;;2.20;0.90;;;;;;;;;;5014365;28;20178;-73
2023/07/05 07:23:05;;;;;;;4.03;1.40;;;;;;;;;;5014795;28;20221;-73
2023/07/05 07:26:12;;;;;;;3.63;1.20;;;;;;;;;;5003156;28;20181;-73
2023/07/05 07:29:16;;;;;;;2.47;1.07;;;;;;;;;;5015103;28;20185;-72
2023/07/05 07:32:21;;;;;;;2.23;1.00;;;;;;;;;;5025607;28;20205;-73
2023/07/05 07:35:25;;;;;;;1.00;0.90;;;;;;;;;;5014480;28;20632;-72
2023/07/05 07:38:29;;;;;;;1.87;1.00;;;;;;;;;;5014466;28;20189;-72
2023/07/05 07:41:35;;;;;;;5.60;1.30;;;;;;;;;;5014486;28;20220;-73
2023/07/05 07:44:39;;;;;;;1.73;0.90;;;;;;;;;;5014584;28;20193;-73
2023/07/05 07:47:43;;;;;;;6.73;1.27;;;;;;;;;;5025231;28;20178;-73
2023/07/05 07:50:49;;;;;;;1.47;0.97;;;;;;;;;;5014163;28;20205;-72
2023/07/05 07:53:54;;;;;;;2.17;1.10;;;;;;;;;;5013430;28;20178;-72
2023/07/05 07:56:59;;;;;;;3.43;0.90;;;;;;;;;;5024754;28;20197;-73
2023/07/05 08:00:05;;;;;;;2.10;0.80;;;;;;;;;;5014106;28;20194;-73
2023/07/05 08:03:17;;;;;;;3.87;0.97;;;;;;;;;;5023637;28;20225;-72
2023/07/05 08:06:37;;;;;;;1.83;0.80;;;;;;;;;;5013540;28;20186;-72
2023/07/05 08:09:41;;;;;;;2.27;0.83;;;;;;;;;;5013484;28;20182;-72
2023/07/05 08:12:46;;;;;;;1.37;0.80;;;;;;;;;;5023860;28;20229;-72
2023/07/05 08:15:50;;;;;;;6.33;0.90;;;;;;;;;;5013911;28;20182;-72
2023/07/05 08:18:54;;;;;;;2.00;0.80;;;;;;;;;;5014215;28;20522;-72
2023/07/05 08:21:58;;;;;;;3.47;0.93;;;;;;;;;;5013134;28;20217;-72
2023/07/05 08:25:02;;;;;;;4.17;1.00;;;;;;;;;;5013740;28;20187;-73
2023/07/05 08:28:06;;;;;;;2.77;1.10;;;;;;;;;;5013813;28;20637;-73
2023/07/05 08:31:10;;;;;;;2.10;1.20;;;;;;;;;;5001507;28;20590;-72
2023/07/05 08:34:14;;;;;;;1.90;1.20;;;;;;;;;;5013739;28;20532;-73
2023/07/05 08:37:19;;;;;;;1.30;1.13;;;;;;;;;;5024549;28;20177;-73
2023/07/05 08:40:30;;;;;;;1.77;1.20;;;;;;;;;;5013103;28;20184;-72
2023/07/05 08:43:40;;;;;;;2.23;1.23;;;;;;;;;;5014059;28;20185;-72
2023/07/05 08:46:55;;;;;;;2.63;1.30;;;;;;;;;;5013023;28;20185;-72
2023/07/05 08:50:20;;;;;;;3.53;1.50;;;;;;;;;;5013765;28;20186;-73
2023/07/05 08:53:25;;;;;;;2.60;1.40;;;;;;;;;;5012892;28;20218;-72
2023/07/05 08:56:36;;;;;;;1.83;1.40;;;;;;;;;;5013621;28;20198;-73
2023/07/05 08:59:47;;;;;;;3.07;1.60;;;;;;;;;;5013024;28;20535;-73
2023/07/05 09:02:52;;;;;;;4.85;1.50;;;;;;;;;;5013070;28;20216;-72
2023/07/05 09:06:30;;;;;;;5.35;1.70;;;;;;;;;;5024246;28;20194;-72
2023/07/05 09:09:34;;;;;;;2.63;1.70;;;;;;;;;;5012845;28;20199;-72
2023/07/05 09:12:57;;;;;;;2.67;1.77;;;;;;;;;;5012538;28;20211;-73
2023/07/05 09:16:24;;;;;;;4.13;2.42;;;;;;;;;;5028556;22;20240;-72
2023/07/05 09:20:04;;;;;;;2.90;1.80;;;;;;;;;;5023991;28;20185;-71
2023/07/05 09:23:24;;;;;;;2.95;1.65;;;;;;;;;;4996330;28;20227;-75
2023/07/05 09:26:45;;;;;;;2.47;1.77;;;;;;;;;;5016191;28;20187;-74
2023/07/05 09:30:16;;;;;;;3.25;2.00;;;;;;;;;;5016897;28;20187;-73
2023/07/05 09:33:33;;;;;;;3.80;1.92;;;;;;;;;;5016270;28;20580;-72
2023/07/05 09:36:39;;;;;;;2.30;1.90;;;;;;;;;;5016828;28;20182;-71
2023/07/05 09:39:55;;;;;;;4.10;2.05;;;;;;;;;;5016786;28;20184;-71
2023/07/05 09:43:12;;;;;;;2.88;2.17;;;;;;;;;;5015853;28;20696;-71
2023/07/05 09:46:27;;;;;;;3.15;2.00;;;;;;;;;;5004922;28;20533;-71
2023/07/05 09:49:31;;;;;;;4.32;2.20;;;;;;;;;;5017151;28;20190;-71
2023/07/05 09:52:36;;;;;;;2.67;2.20;;;;;;;;;;5015762;28;20206;-70
2023/07/05 09:56:26;;;;;;;5.53;1.95;;;;;;;;;;5016283;28;20197;-71
2023/07/05 09:59:32;;;;;;;4.93;1.77;;;;;;;;;;5015519;28;20533;-71
2023/07/05 10:02:37;;;;;;;3.95;2.28;;;;;;;;;;5016350;28;20206;-71
2023/07/05 10:05:51;;;;;;;2.65;2.13;;;;;;;;;;5016554;28;20185;-71
2023/07/05 10:09:04;;;;;;;3.00;2.00;;;;;;;;;;5016157;28;20197;-72
2023/07/05 10:12:10;;;;;;;2.70;2.10;;;;;;;;;;5016000;28;20228;-70
2023/07/05 10:15:21;;;;;;;2.78;2.30;;;;;;;;;;5016057;28;20545;-72
2023/07/05 10:18:32;;;;;;;5.90;2.25;;;;;;;;;;5016269;28;20525;-72
2023/07/05 10:21:36;;;;;;;3.03;2.35;;;;;;;;;;5015350;28;20224;-72
2023/07/05 10:24:47;;;;;;;3.25;2.42;;;;;;;;;;5016142;28;20204;-74
2023/07/05 10:27:51;;;;;;;4.72;2.13;;;;;;;;;;5015324;28;20188;-74
2023/07/05 10:31:01;;;;;;;5.60;1.63;;;;;;;;;;5015639;28;20249;-74
2023/07/05 10:34:18;;;;;;;5.32;1.92;;;;;;;;;;5015070;28;20175;-74
2023/07/05 10:37:34;;;;;;;2.63;1.60;;;;;;;;;;5014363;28;20184;-74
2023/07/05 10:40:39;;;;;;;3.55;1.60;;;;;;;;;;5015820;28;20179;-73
2023/07/05 10:43:55;;;;;;;3.17;1.40;;;;;;;;;;5014554;28;20203;-73
2023/07/05 10:47:02;;;;;;;4.80;1.00;;;;;;;;;;5015580;28;20192;-73
2023/07/05 10:50:07;;;;;;;1.40;0.90;;;;;;;;;;5015703;28;20178;-73
2023/07/05 10:53:15;;;;;;;1.00;0.70;;;;;;;;;;5015273;28;20217;-73
2023/07/05 10:56:23;;;;;;;2.43;0.67;;;;;;;;;;5015776;28;20187;-74
2023/07/05 10:59:39;;;;;;;3.50;0.83;;;;;;;;;;5015333;28;20648;-73
2023/07/05 11:02:56;;;;;;;2.00;1.03;;;;;;;;;;5015228;28;20221;-73
2023/07/05 11:06:03;;;;;;;3.50;1.70;;;;;;;;;;5014194;28;20186;-73
2023/07/05 11:09:08;;;;;;;2.00;1.53;;;;;;;;;;5014254;28;20197;-73
2023/07/05 11:12:25;;;;;;;2.30;1.50;;;;;;;;;;5002993;28;20229;-73
2023/07/05 11:15:30;;;;;;;1.83;1.10;;;;;;;;;;5014154;28;20225;-74
2023/07/05 11:18:35;;;;;;;4.50;1.60;;;;;;;;;;5014120;28;20175;-73
2023/07/05 11:21:44;;;;;;;1.83;1.10;;;;;;;;;;5014772;28;20218;-73
2023/07/05 11:24:48;;;;;;;2.37;1.27;;;;;;;;;;5015084;28;20623;-73
2023/07/05 11:27:54;;;;;;;3.50;1.50;;;;;;;;;;5015268;28;20175;-73
2023/07/05 11:30:59;;;;;;;2.30;1.50;;;;;;;;;;5014598;28;20205;-73
2023/07/05 11:34:21;;;;;;;1.70;1.30;;;;;;;;;;5014620;28;20208;-73
2023/07/05 11:37:25;;;;;;;3.00;1.33;;;;;;;;;;5014792;28;20518;-75
2023/07/05 11:40:56;;;;;;;1.80;1.10;;;;;;;;;;5014481;28;20188;-71
2023/07/05 11:44:04;;;;;;;1.73;0.88;;;;;;;;;;5013854;28;20179;-71
2023/07/05 11:47:33;;;;;;;1.17;0.80;;;;;;;;;;5013831;28;20175;-71
2023/07/05 11:50:37;;;;;;;2.40;0.63;;;;;;;;;;5014585;28;20185;-72
2023/07/05 11:53:43;;;;;;;2.42;0.77;;;;;;;;;;5014485;28;20177;-71
2023/07/05 11:56:51;;;;;;;3.65;1.15;;;;;;;;;;5013457;28;20184;-71
2023/07/05 12:00:20;;;;;;;2.83;1.10;;;;;;;;;;5013510;28;20180;-71
2023/07/05 12:03:31;;;;;;;2.33;0.90;;;;;;;;;;5013489;28;20219;-71
2023/07/05 12:06:41;;;;;;;2.45;1.05;;;;;;;;;;5014280;28;20614;-72
2023/07/05 12:09:45;;;;;;;1.48;0.98;;;;;;;;;;5014283;28;20185;-72
2023/07/05 12:12:49;;;;;;;1.83;1.13;;;;;;;;;;5013757;28;20234;-71
2023/07/05 12:15:53;;;;;;;1.63;1.05;;;;;;;;;;5015114;28;20211;-71
2023/07/05 12:18:57;;;;;;;1.77;1.00;;;;;;;;;;5013316;28;20188;-72
2023/07/05 12:22:04;;;;;;;3.00;1.05;;;;;;;;;;5013912;28;20554;-72
2023/07/05 12:25:10;;;;;;;2.03;1.10;;;;;;;;;;5014011;28;20627;-72
2023/07/05 12:28:17;;;;;;;1.10;1.00;;;;;;;;;;5013172;28;20182;-72
2023/07/05 12:31:22;;;;;;;1.33;1.00;;;;;;;;;;5012917;28;20209;-72
2023/07/05 12:34:27;;;;;;;1.33;1.08;;;;;;;;;;5013742;28;20181;-72
2023/07/05 12:37:32;;;;;;;2.38;1.00;;;;;;;;;;5013411;28;20666;-72
2023/07/05 12:40:40;;;;;;;3.45;1.05;;;;;;;;;;5013469;28;20200;-72
2023/07/05 12:43:45;;;;;;;2.17;0.90;;;;;;;;;;5013346;28;20191;-71
2023/07/05 12:46:49;;;;;;;3.13;1.00;;;;;;;;;;5013595;28;20371;-72
2023/07/05 12:50:07;;;;;;;2.97;1.10;;;;;;;;;;5012677;28;20183;-72
2023/07/05 12:53:20;;;;;;;1.65;0.90;;;;;;;;;;5012841;28;20682;-72
2023/07/05 12:56:31;;;;;;;2.47;0.80;;;;;;;;;;5013201;28;20185;-72
2023/07/05 12:59:37;;;;;;;1.58;0.82;;;;;;;;;;5017430;28;20181;-71
2023/07/05 13:02:44;;;;;;;1.50;1.00;;;;;;;;;;5019859;28;20206;-71
2023/07/05 13:05:48;;;;;;;1.70;0.93;;;;;;;;;;5018946;28;20654;-72
2023/07/05 13:08:55;;;;;;;2.42;0.85;;;;;;;;;;5019109;28;20178;-71
2023/07/05 13:12:05;;;;;;;1.90;1.00;;;;;;;;;;5019749;28;20231;-71
2023/07/05 13:15:10;;;;;;;1.67;1.10;;;;;;;;;;5019570;28;20204;-71
2023/07/05 13:18:26;;;;;;;1.35;0.90;;;;;;;;;;5018850;28;20528;-71
2023/07/05 13:21:47;;;;;;;1.92;0.98;;;;;;;;;;5018681;28;20564;-72
2023/07/05 13:24:53;;;;;;;1.92;1.20;;;;;;;;;;5019020;28;20181;-72
2023/07/05 13:27:58;;;;;;;3.33;1.10;;;;;;;;;;5018953;28;20520;-71
2023/07/05 13:31:03;;;;;;;1.63;1.10;;;;;;;;;;5018676;28;20172;-72
2023/07/05 13:34:07;;;;;;;1.15;0.95;;;;;;;;;;5019840;28;20182;-72
2023/07/05 13:37:14;;;;;;;1.42;1.02;;;;;;;;;;5019419;28;20187;-72
2023/07/05 13:40:22;;;;;;;1.35;1.00;;;;;;;;;;5007346;28;20200;-72
2023/07/05 13:43:26;;;;;;;3.10;1.10;;;;;;;;;;5019349;28;20216;-71
2023/07/05 13:46:30;;;;;;;2.00;1.25;;;;;;;;;;5018783;28;20201;-72
2023/07/05 13:49:34;;;;;;;4.13;1.35;;;;;;;;;;5019240;28;20662;-72
2023/07/05 13:52:40;;;;;;;3.00;1.20;;;;;;;;;;5019416;28;20232;-72
2023/07/05 13:55:43;;;;;;;1.70;1.20;;;;;;;;;;5019544;28;20183;-72
2023/07/05 13:58:48;;;;;;;1.85;1.20;;;;;;;;;;5019552;28;20181;-72
2023/07/05 14:01:52;;;;;;;2.20;1.42;;;;;;;;;;5007626;28;20216;-72
2023/07/05 14:04:57;;;;;;;2.97;1.50;;;;;;;;;;5019720;28;20522;-72
2023/07/05 14:08:06;;;;;;;3.53;1.52;;;;;;;;;;5019385;28;20639;-71
2023/07/05 14:11:21;;;;;;;2.78;1.60;;;;;;;;;;5015265;28;20183;-71
2023/07/05 14:14:25;;;;;;;1.67;1.58;;;;;;;;;;5004173;28;20544;-72
2023/07/05 14:17:31;;;;;;;2.17;1.70;;;;;;;;;;5016335;28;20189;-72
2023/07/05 14:20:37;;;;;;;1.77;1.38;;;;;;;;;;5015223;28;20179;-72
2023/07/05 14:23:41;;;;;;;4.18;1.60;;;;;;;;;;5016506;28;20516;-72
2023/07/05 14:26:45;;;;;;;3.75;1.40;;;;;;;;;;5015738;28;20507;-72
2023/07/05 14:29:52;;;;;;;1.60;1.45;;;;;;;;;;5016074;28;20176;-71
2023/07/05 14:32:56;;;;;;;4.88;1.60;;;;;;;;;;5015017;28;20569;-72
2023/07/05 14:36:00;;;;;;;3.50;1.35;;;;;;;;;;5015798;28;20206;-71
2023/07/05 14:39:04;;;;;;;2.58;1.77;;;;;;;;;;5015053;28;20190;-71
2023/07/05 14:42:12;;;;;;;2.05;1.52;;;;;;;;;;5015998;28;20214;-71
2023/07/05 14:45:21;;;;;;;2.03;1.60;;;;;;;;;;5015727;28;20200;-72
2023/07/05 14:48:25;;;;;;;4.93;3.00;;;;;;;;;;5015837;28;20188;-71
2023/07/05 14:51:29;;;;;;;2.10;1.73;;;;;;;;;;5015511;28;20215;-71
2023/07/05 14:54:34;;;;;;;3.00;1.80;;;;;;;;;;5015370;28;20179;-71
2023/07/05 14:57:38;;;;;;;3.45;1.92;;;;;;;;;;5003609;28;20178;-72
2023/07/05 15:00:46;;;;;;;4.60;1.83;;;;;;;;;;5014708;28;20181;-71
2023/07/05 15:03:51;;;;;;;1.90;1.50;;;;;;;;;;5015161;28;20203;-72
2023/07/05 15:06:55;;;;;;;3.03;1.85;;;;;;;;;;5015073;28;20176;-72
2023/07/05 15:09:59;;;;;;;2.00;1.40;;;;;;;;;;5015025;28;20181;-72
2023/07/05 15:13:07;;;;;;;2.47;1.70;;;;;;;;;;5014775;28;20224;-72
2023/07/05 15:16:14;;;;;;;2.88;1.65;;;;;;;;;;5021520;22;20235;-75
2023/07/05 15:19:20;;;;;;;1.92;1.50;;;;;;;;;;4996534;28;20200;-74
2023/07/05 15:22:25;;;;;;;2.00;1.60;;;;;;;;;;4996346;28;20211;-75
2023/07/05 15:25:30;;;;;;;2.15;1.67;;;;;;;;;;4996672;28;20195;-74
2023/07/05 15:28:34;;;;;;;2.80;1.70;;;;;;;;;;4996995;28;20179;-74
2023/07/05 15:31:38;;;;;;;3.58;1.60;;;;;;;;;;4995502;28;20569;-74
2023/07/05 15:34:42;;;;;;;4.20;1.55;;;;;;;;;;4996093;28;20185;-74
2023/07/05 15:37:47;;;;;;;2.33;1.75;;;;;;;;;;4996239;28;20184;-73
2023/07/05 15:40:52;;;;;;;1.35;1.15;;;;;;;;;;4996140;28;20183;-73
2023/07/05 15:43:56;;;;;;;2.53;1.50;;;;;;;;;;4995036;28;20664;-74
2023/07/05 15:47:00;;;;;;;4.00;1.73;;;;;;;;;;4995884;28;20176;-74
2023/07/05 15:50:07;;;;;;;2.08;1.10;;;;;;;;;;4994496;28;20560;-73
2023/07/05 15:53:11;;;;;;;1.80;1.10;;;;;;;;;;4995567;28;20221;-73
2023/07/05 15:56:15;;;;;;;1.73;1.08;;;;;;;;;;4994670;28;20190;-74
2023/07/05 15:59:25;;;;;;;1.10;1.00;;;;;;;;;;4994468;28;20186;-74
2023/07/05 16:02:40;;;;;;;1.25;1.13;;;;;;;;;;4995357;28;20324;-73
2023/07/05 16:05:44;;;;;;;1.50;1.40;;;;;;;;;;4995152;28;20200;-74
2023/07/05 16:08:48;;;;;;;1.60;1.08;;;;;;;;;;4995294;28;20179;-74
2023/07/05 16:11:53;;;;;;;2.13;1.23;;;;;;;;;;4995114;28;20223;-74
2023/07/05 16:14:57;;;;;;;1.20;0.77;;;;;;;;;;4995018;28;20535;-74
2023/07/05 16:18:03;;;;;;;1.70;1.03;;;;;;;;;;4994378;28;20184;-73
2023/07/05 16:21:07;;;;;;;2.90;1.40;;;;;;;;;;4993847;28;20182;-75
2023/07/05 16:24:13;;;;;;;1.50;1.05;;;;;;;;;;4994019;28;20180;-73
2023/07/05 16:27:17;;;;;;;1.63;1.40;;;;;;;;;;4994371;28;20632;-73
2023/07/05 16:30:21;;;;;;;1.50;1.30;;;;;;;;;;4994098;28;20184;-73
2023/07/05 16:33:25;;;;;;;2.80;1.30;;;;;;;;;;4992653;28;20562;-73
2023/07/05 16:36:30;;;;;;;3.20;1.50;;;;;;;;;;4982281;28;20516;-73
2023/07/05 16:39:35;;;;;;;1.80;1.37;;;;;;;;;;4993253;28;20178;-73
2023/07/05 16:42:41;;;;;;;2.00;1.50;;;;;;;;;;4993969;28;20216;-73
2023/07/05 16:45:45;;;;;;;4.73;1.40;;;;;;;;;;4993618;28;20183;-75
2023/07/05 16:48:49;;;;;;;2.57;1.27;;;;;;;;;;4993938;28;20178;-74
2023/07/05 16:51:57;;;;;;;1.43;1.00;;;;;;;;;;4981711;28;20218;-74
2023/07/05 16:55:02;;;;;;;1.63;1.20;;;;;;;;;;4993686;28;20181;-75
2023/07/05 16:58:05;;;;;;;4.60;1.20;;;;;;;;;;4993726;28;20277;-75
2023/07/05 17:01:11;;;;;;;3.70;1.40;;;;;;;;;;4993491;28;20177;-74
2023/07/05 17:04:15;;;;;;;3.97;1.30;;;;;;;;;;4993774;28;20184;-76
2023/07/05 17:07:19;;;;;;;2.60;1.37;;;;;;;;;;4993443;28;20177;-74
2023/07/05 17:10:23;;;;;;;3.80;1.40;;;;;;;;;;4993041;28;20184;-73
2023/07/05 17:13:28;;;;;;;2.77;1.50;;;;;;;;;;4993142;28;20225;-73
2023/07/05 17:16:32;;;;;;;1.70;1.20;;;;;;;;;;4954568;28;1141568;-73
2023/07/05 17:19:37;;;;;;;1.90;1.13;;;;;;;;;;4994137;28;20192;-72
2023/07/05 17:22:41;;;;;;;1.77;1.30;;;;;;;;;;4993879;28;20689;-73
2023/07/05 17:25:52;;;;;;;3.13;1.43;;;;;;;;;;4994089;28;20181;-73
2023/07/05 17:28:56;;;;;;;1.70;1.40;;;;;;;;;;4994220;28;20187;-73
2023/07/05 17:32:00;;;;;;;2.70;1.40;;;;;;;;;;4992838;28;20228;-73
2023/07/05 17:35:05;;;;;;;4.40;1.60;;;;;;;;;;4993677;28;20197;-73
2023/07/05 17:38:10;;;;;;;5.77;1.63;;;;;;;;;;4982125;28;20174;-73
2023/07/05 17:41:16;;;;;;;2.17;1.60;;;;;;;;;;4993892;28;20180;-73
2023/07/05 17:44:23;;;;;;;5.93;1.40;;;;;;;;;;4993035;28;20651;-73
2023/07/05 17:47:27;;;;;;;3.90;1.70;;;;;;;;;;4996666;28;20201;-73
2023/07/05 17:50:31;;;;;;;1.63;1.30;;;;;;;;;;4997432;28;20626;-73
2023/07/05 17:53:36;;;;;;;2.60;1.90;;;;;;;;;;4996296;28;20217;-73
2023/07/05 17:56:40;;;;;;;2.13;1.87;;;;;;;;;;4997524;28;20180;-73
2023/07/05 17:59:45;;;;;;;1.57;1.40;;;;;;;;;;4985754;28;20193;-73
2023/07/05 18:02:49;;;;;;;3.10;1.63;;;;;;;;;;4997456;28;20215;-73
2023/07/05 18:05:54;;;;;;;3.17;1.50;;;;;;;;;;4996548;28;20189;-74
2023/07/05 18:08:59;;;;;;;2.80;1.30;;;;;;;;;;4997024;28;20634;-73
2023/07/05 18:12:04;;;;;;;1.77;1.20;;;;;;;;;;4996901;28;20691;-73
2023/07/05 18:15:08;;;;;;;3.03;1.80;;;;;;;;;;4996899;28;20214;-72
2023/07/05 18:18:14;;;;;;;4.73;1.63;;;;;;;;;;4996980;28;20202;-73
2023/07/05 18:21:26;;;;;;;2.27;1.87;;;;;;;;;;4996411;28;20656;-73
2023/07/05 18:24:30;;;;;;;3.20;2.10;;;;;;;;;;4996878;28;20179;-74
2023/07/05 18:27:34;;;;;;;2.20;1.80;;;;;;;;;;4996788;28;20179;-72
2023/07/05 18:30:46;;;;;;;2.50;1.80;;;;;;;;;;4996497;28;20182;-73
2023/07/05 18:33:51;;;;;;;2.63;2.00;;;;;;;;;;4996614;28;20210;-73
2023/07/05 18:36:55;;;;;;;1.97;1.70;;;;;;;;;;4996313;28;20203;-73
2023/07/05 18:39:59;;;;;;;2.70;2.00;;;;;;;;;;4996446;28;20649;-72
2023/07/05 18:43:03;;;;;;;3.30;2.23;;;;;;;;;;4995607;28;20217;-73